Terminal Aerodrome Forecast
Issued by NWS

Home | Current Version | Previous Version | Text Only | Print | Product List | Glossary On
Versions: 1 2 3 4 5 6 7 8 9 10 11 12 13 14 15 16 17 18
000
FTUS43 KGLD 171738
TAFMCK
TAF
KMCK 171738Z 1718/1818 34006KT P6SM OVC017
     FM172100 34005KT P6SM SCT020 BKN050
     FM180100 VRB03KT P6SM FEW015 SCT200
     FM180800 25007KT P6SM SKC=

USA.gov is the U.S. government's official web portal to all federal, state and local government web resources and services.